Time;durP1;ratioP1;P1;durP2;ratioP2;P2;SDS_P1;SDS_P2;PMS_P1;PMS_P2;Temp;Humidity;BMP_temperature;BMP_pressure;BME280_temperature;BME280_humidity;BME280_pressure;Samples;Min_cycle;Max_cycle;Signal;HPM_P1;HPM_P2
2023/12/12 00:01:03;;;;;;;2.40;1.77;;;22.20;62.20;;;;;;5076409;28;20468;-85
2023/12/12 00:03:30;;;;;;;2.30;1.77;;;22.20;62.20;;;;;;5076654;28;20442;-85
2023/12/12 00:05:57;;;;;;;1.97;1.30;;;22.10;62.10;;;;;;5076397;28;20994;-85
2023/12/12 00:08:24;;;;;;;2.53;1.60;;;22.10;62.00;;;;;;5076718;28;20434;-85
2023/12/12 00:10:52;;;;;;;1.60;1.50;;;22.10;62.00;;;;;;5076825;28;20436;-85
2023/12/12 00:13:19;;;;;;;2.20;1.63;;;22.10;62.00;;;;;;5076291;28;20994;-85
2023/12/12 00:15:45;;;;;;;1.50;1.33;;;22.10;62.10;;;;;;5076349;28;20783;-86
2023/12/12 00:18:12;;;;;;;3.07;2.00;;;22.10;62.10;;;;;;5076209;28;20470;-85
2023/12/12 00:20:39;;;;;;;1.40;1.30;;;22.10;62.10;;;;;;5076338;28;20440;-85
2023/12/12 00:23:06;;;;;;;1.50;1.30;;;22.10;62.10;;;;;;5076371;28;20448;-85
2023/12/12 00:25:32;;;;;;;2.53;1.47;;;22.10;62.20;;;;;;5075991;28;21021;-86
2023/12/12 00:28:01;;;;;;;1.63;1.43;;;22.10;62.20;;;;;;5076036;28;20444;-85
2023/12/12 00:30:28;;;;;;;1.60;1.40;;;22.10;62.20;;;;;;5076036;28;20487;-85
2023/12/12 00:32:54;;;;;;;1.70;1.60;;;22.00;62.10;;;;;;5075974;28;20443;-85
2023/12/12 00:35:21;;;;;;;1.40;1.30;;;22.00;62.20;;;;;;5075982;28;21003;-85
2023/12/12 00:37:48;;;;;;;1.73;1.53;;;22.00;62.10;;;;;;5075827;28;20440;-85
2023/12/12 00:40:15;;;;;;;3.47;1.50;;;22.00;62.10;;;;;;5076068;28;20424;-85
2023/12/12 00:42:42;;;;;;;1.60;1.50;;;22.00;62.10;;;;;;5076620;28;20448;-85
2023/12/12 00:45:10;;;;;;;1.93;1.37;;;22.00;62.20;;;;;;5081444;28;20495;-85
2023/12/12 00:47:37;;;;;;;1.93;1.37;;;22.00;62.10;;;;;;5080206;28;20519;-84
2023/12/12 00:50:05;;;;;;;2.03;1.57;;;22.10;62.30;;;;;;5075693;28;20522;-85
2023/12/12 00:52:32;;;;;;;2.33;1.40;;;22.00;62.10;;;;;;5074949;28;20440;-85
2023/12/12 00:54:59;;;;;;;1.37;1.20;;;22.00;62.10;;;;;;5075506;28;20445;-85
2023/12/12 00:57:26;;;;;;;1.50;1.40;;;22.00;62.10;;;;;;5075778;28;20441;-85
2023/12/12 00:59:53;;;;;;;1.57;1.33;;;22.00;62.00;;;;;;5075486;28;20478;-85
2023/12/12 01:02:24;;;;;;;1.53;1.27;;;21.90;62.00;;;;;;5075254;28;20468;-85
2023/12/12 01:04:51;;;;;;;2.47;1.80;;;21.90;62.00;;;;;;5075495;28;20501;-85
2023/12/12 01:07:18;;;;;;;1.63;1.50;;;21.90;61.90;;;;;;5075458;28;20440;-85
2023/12/12 01:09:45;;;;;;;2.93;1.50;;;21.90;61.90;;;;;;5075363;28;20436;-85
2023/12/12 01:12:12;;;;;;;1.40;1.30;;;21.90;62.00;;;;;;5075499;28;20432;-85
2023/12/12 01:14:39;;;;;;;3.77;1.27;;;22.00;62.10;;;;;;5075133;28;20565;-85
2023/12/12 01:17:05;;;;;;;1.50;1.30;;;21.90;62.00;;;;;;5075192;28;20459;-85
2023/12/12 01:19:33;;;;;;;2.20;1.30;;;21.90;62.10;;;;;;5075109;28;20475;-85
2023/12/12 01:22:00;;;;;;;1.80;1.30;;;21.90;62.10;;;;;;5075147;28;20443;-85
2023/12/12 01:24:27;;;;;;;1.20;1.10;;;21.90;62.10;;;;;;5075006;28;20939;-85
2023/12/12 01:26:54;;;;;;;1.40;1.20;;;21.90;62.10;;;;;;5060720;28;20803;-85
2023/12/12 01:29:20;;;;;;;1.60;1.37;;;21.90;62.10;;;;;;5053470;28;20458;-85
2023/12/12 01:31:47;;;;;;;1.90;1.53;;;22.00;62.20;;;;;;5053502;28;20456;-85
2023/12/12 01:34:14;;;;;;;1.40;1.30;;;21.90;62.10;;;;;;5052458;28;20444;-85
2023/12/12 01:36:42;;;;;;;1.60;1.30;;;21.90;62.10;;;;;;5052596;28;20807;-85
2023/12/12 01:39:09;;;;;;;1.50;1.40;;;21.90;62.20;;;;;;5052889;28;20440;-85
2023/12/12 01:41:36;;;;;;;1.60;1.30;;;21.80;62.00;;;;;;5052690;28;20854;-86
2023/12/12 01:44:03;;;;;;;1.50;1.20;;;21.80;62.10;;;;;;5052432;28;20713;-85
2023/12/12 01:46:31;;;;;;;1.70;1.47;;;21.80;62.10;;;;;;5052511;28;20489;-85
2023/12/12 01:48:58;;;;;;;1.30;1.10;;;21.80;62.20;;;;;;5053753;28;20442;-85
2023/12/12 01:51:25;;;;;;;2.70;1.43;;;21.80;62.10;;;;;;5054348;28;20429;-85
2023/12/12 01:53:54;;;;;;;1.20;1.00;;;21.90;62.20;;;;;;5054154;28;20440;-85
2023/12/12 01:56:22;;;;;;;3.60;1.50;;;21.90;62.20;;;;;;5054133;28;20460;-85
2023/12/12 01:58:51;;;;;;;1.40;1.30;;;21.90;62.10;;;;;;5054097;28;20439;-85
2023/12/12 02:01:19;;;;;;;1.50;1.37;;;21.90;62.10;;;;;;5053762;28;20465;-85
2023/12/12 02:03:46;;;;;;;1.37;1.27;;;21.90;62.10;;;;;;5054065;28;20448;-85
2023/12/12 02:06:15;;;;;;;5.00;1.40;;;21.90;62.10;;;;;;5053920;28;20580;-85
2023/12/12 02:08:42;;;;;;;1.50;1.20;;;21.90;61.90;;;;;;5054229;28;20457;-85
2023/12/12 02:11:11;;;;;;;1.67;1.30;;;21.90;62.00;;;;;;5053919;28;20913;-85
2023/12/12 02:13:38;;;;;;;1.70;1.40;;;21.90;62.80;;;;;;5053912;28;20440;-85
2023/12/12 02:16:05;;;;;;;1.60;1.30;;;21.90;61.90;;;;;;5053801;28;20429;-85
2023/12/12 02:18:32;;;;;;;1.50;1.30;;;21.90;61.90;;;;;;5053497;28;20818;-85
2023/12/12 02:21:00;;;;;;;1.40;1.10;;;21.90;61.80;;;;;;5053707;28;20432;-85
2023/12/12 02:23:28;;;;;;;1.40;1.30;;;21.90;61.80;;;;;;5053673;28;20487;-85
2023/12/12 02:25:56;;;;;;;1.30;1.20;;;21.90;61.80;;;;;;5053605;28;20481;-85
2023/12/12 02:28:23;;;;;;;1.33;1.17;;;21.90;61.80;;;;;;5053576;28;20566;-85
2023/12/12 02:30:50;;;;;;;1.50;1.33;;;21.90;61.80;;;;;;5053414;28;20839;-86
2023/12/12 02:33:17;;;;;;;2.07;1.60;;;21.90;61.80;;;;;;5053439;28;20430;-85
2023/12/12 02:35:44;;;;;;;1.30;1.10;;;21.90;61.80;;;;;;5053319;28;20437;-85
2023/12/12 02:38:13;;;;;;;1.30;1.10;;;21.90;61.80;;;;;;5053510;28;20425;-86
2023/12/12 02:40:41;;;;;;;1.57;1.47;;;21.90;61.70;;;;;;5053276;28;20433;-85
2023/12/12 02:43:08;;;;;;;2.17;1.57;;;21.90;61.70;;;;;;5053336;28;20433;-85
2023/12/12 02:45:35;;;;;;;1.60;1.50;;;22.00;61.80;;;;;;5053206;28;20492;-91
2023/12/12 02:48:03;;;;;;;3.70;1.30;;;22.00;61.80;;;;;;5053166;28;20532;-85
2023/12/12 02:50:29;;;;;;;2.13;1.20;;;21.90;61.70;;;;;;5053370;28;20433;-86
2023/12/12 02:52:56;;;;;;;2.23;1.30;;;21.90;61.60;;;;;;5053434;28;20438;-85
2023/12/12 02:55:23;;;;;;;2.50;1.47;;;22.00;61.80;;;;;;5053034;28;20525;-85
2023/12/12 02:57:51;;;;;;;1.20;1.10;;;21.90;61.50;;;;;;5055394;28;20452;-86
2023/12/12 03:00:18;;;;;;;1.80;1.00;;;22.00;61.80;;;;;;5058490;28;20439;-85
2023/12/12 03:02:45;;;;;;;1.23;1.07;;;21.90;61.60;;;;;;5053156;28;20459;-85
2023/12/12 03:05:12;;;;;;;1.70;1.10;;;22.00;61.70;;;;;;5053044;28;20485;-85
2023/12/12 03:07:38;;;;;;;1.20;1.10;;;22.00;61.70;;;;;;5052972;28;20867;-85
2023/12/12 03:10:06;;;;;;;1.57;1.23;;;22.00;61.60;;;;;;5052993;28;20538;-85
2023/12/12 03:12:33;;;;;;;1.67;1.30;;;22.00;61.50;;;;;;5053012;28;20525;-85
2023/12/12 03:15:01;;;;;;;1.97;1.67;;;22.00;61.50;;;;;;5052482;28;20437;-85
2023/12/12 03:17:28;;;;;;;1.40;1.10;;;22.00;61.70;;;;;;5052801;28;20805;-86
2023/12/12 03:19:55;;;;;;;1.40;1.20;;;22.00;61.60;;;;;;5052657;28;20472;-85
2023/12/12 03:22:22;;;;;;;1.40;1.30;;;22.00;61.50;;;;;;5052741;28;20444;-85
2023/12/12 03:24:48;;;;;;;1.30;1.10;;;22.00;61.50;;;;;;5052859;28;20448;-85
2023/12/12 03:27:15;;;;;;;1.40;0.97;;;22.00;61.60;;;;;;5052701;28;20492;-85
2023/12/12 03:29:42;;;;;;;1.67;1.20;;;22.00;61.60;;;;;;5052762;28;20442;-85
2023/12/12 03:32:10;;;;;;;1.23;1.10;;;22.00;61.60;;;;;;5052609;28;20464;-86
2023/12/12 03:34:37;;;;;;;3.30;1.20;;;22.00;61.60;;;;;;5052820;28;20528;-85
2023/12/12 03:37:04;;;;;;;1.20;1.00;;;22.00;61.50;;;;;;5052610;28;20429;-85
2023/12/12 03:39:31;;;;;;;1.30;1.10;;;22.00;61.40;;;;;;5052767;28;20436;-85
2023/12/12 03:41:58;;;;;;;1.30;1.17;;;22.00;61.50;;;;;;5052793;28;20430;-85
2023/12/12 03:44:24;;;;;;;1.20;0.93;;;22.00;61.50;;;;;;5052549;28;20440;-86
2023/12/12 03:46:51;;;;;;;1.20;1.00;;;22.00;61.50;;;;;;5052570;28;20487;-85
2023/12/12 03:49:19;;;;;;;2.37;1.43;;;22.00;61.50;;;;;;5052681;28;20465;-85
2023/12/12 03:51:46;;;;;;;1.20;1.00;;;21.90;61.40;;;;;;5052703;28;20863;-85
2023/12/12 03:54:13;;;;;;;1.40;1.30;;;22.00;61.50;;;;;;5052552;28;20464;-85
2023/12/12 03:56:40;;;;;;;1.60;1.10;;;22.00;61.50;;;;;;5052369;28;20430;-85
2023/12/12 03:59:06;;;;;;;1.60;1.40;;;21.90;61.30;;;;;;5052474;28;20445;-85
2023/12/12 04:01:33;;;;;;;1.30;1.10;;;21.90;61.40;;;;;;5052453;28;20454;-85
2023/12/12 04:04:00;;;;;;;1.40;1.20;;;21.90;61.30;;;;;;5052365;28;20460;-85
2023/12/12 04:06:28;;;;;;;1.37;1.20;;;22.00;61.40;;;;;;5052366;28;20485;-86
2023/12/12 04:08:55;;;;;;;1.40;1.10;;;22.00;61.50;;;;;;5052465;28;20441;-93
2023/12/12 04:11:22;;;;;;;1.50;1.30;;;22.00;61.40;;;;;;5052350;28;20445;-85
2023/12/12 04:13:48;;;;;;;1.30;1.20;;;21.90;61.30;;;;;;5052323;28;20805;-85
2023/12/12 04:16:15;;;;;;;1.30;1.20;;;22.00;61.30;;;;;;5052418;28;20528;-85
2023/12/12 04:18:42;;;;;;;1.40;1.10;;;21.90;61.20;;;;;;5052032;28;20828;-85
2023/12/12 04:21:09;;;;;;;1.43;1.23;;;21.90;61.30;;;;;;5052363;28;20443;-85
2023/12/12 04:23:42;;;;;;;1.30;1.20;;;21.90;61.30;;;;;;5052028;28;20433;-86
2023/12/12 04:26:09;;;;;;;1.40;1.03;;;21.90;61.30;;;;;;5052210;28;20489;-85
2023/12/12 04:28:36;;;;;;;1.90;1.20;;;21.90;61.40;;;;;;5055027;28;20491;-85
2023/12/12 04:31:02;;;;;;;1.10;0.90;;;21.90;61.30;;;;;;5055778;28;20552;-85
2023/12/12 04:33:33;;;;;;;1.30;1.00;;;21.90;61.40;;;;;;5055920;28;20429;-85
2023/12/12 04:36:01;;;;;;;2.53;1.20;;;21.90;61.40;;;;;;5055672;28;20938;-85
2023/12/12 04:38:28;;;;;;;1.50;1.10;;;21.90;61.30;;;;;;5055723;28;20440;-85
2023/12/12 04:40:56;;;;;;;1.70;1.20;;;21.90;61.40;;;;;;5055568;28;20936;-85
2023/12/12 04:43:22;;;;;;;1.47;1.20;;;21.90;61.30;;;;;;5055630;28;20456;-86
2023/12/12 04:45:49;;;;;;;1.87;1.30;;;21.90;61.40;;;;;;5055428;28;20476;-85
2023/12/12 04:48:17;;;;;;;2.40;1.10;;;21.90;61.30;;;;;;5055533;28;20433;-85
2023/12/12 04:50:44;;;;;;;2.43;1.50;;;21.90;61.30;;;;;;5055498;28;20495;-85
2023/12/12 04:53:10;;;;;;;1.97;1.30;;;22.00;61.50;;;;;;5055502;28;20517;-85
2023/12/12 04:55:37;;;;;;;1.20;1.03;;;21.90;61.20;;;;;;5055247;28;20452;-85
2023/12/12 04:58:05;;;;;;;1.30;0.97;;;21.90;61.30;;;;;;5055384;28;20434;-85
2023/12/12 05:00:32;;;;;;;1.60;1.17;;;21.90;61.40;;;;;;5055147;28;20798;-88
2023/12/12 05:02:59;;;;;;;1.23;1.03;;;22.00;61.30;;;;;;5057723;28;20525;-84
2023/12/12 05:05:27;;;;;;;1.83;1.03;;;22.00;61.30;;;;;;5055296;28;20499;-84
2023/12/12 05:07:53;;;;;;;1.40;1.30;;;22.00;61.20;;;;;;5057805;28;20434;-84
2023/12/12 05:10:21;;;;;;;1.23;1.10;;;22.00;61.20;;;;;;5077609;28;20428;-86
2023/12/12 05:12:51;;;;;;;1.30;1.20;;;22.00;61.30;;;;;;5075105;28;20439;-85
2023/12/12 05:15:23;;;;;;;2.13;1.30;;;22.00;61.10;;;;;;5064221;28;20426;-86
2023/12/12 05:17:50;;;;;;;1.40;1.10;;;22.00;61.10;;;;;;5070927;28;21014;-85
2023/12/12 05:20:18;;;;;;;1.50;1.20;;;22.00;61.10;;;;;;5063092;28;20854;-85
2023/12/12 05:22:44;;;;;;;1.40;1.10;;;22.10;61.20;;;;;;5066076;28;20461;-85
2023/12/12 05:25:11;;;;;;;1.70;1.13;;;22.10;61.10;;;;;;5072317;28;20440;-85
2023/12/12 05:27:38;;;;;;;1.90;1.10;;;22.10;61.00;;;;;;5058602;28;20487;-85
2023/12/12 05:30:07;;;;;;;1.57;1.03;;;22.10;61.00;;;;;;5055000;28;20443;-86
2023/12/12 05:32:36;;;;;;;1.50;1.10;;;22.10;61.00;;;;;;5055096;28;20473;-86
2023/12/12 05:35:04;;;;;;;1.90;1.20;;;22.10;61.00;;;;;;5054781;28;20447;-91
2023/12/12 05:37:31;;;;;;;1.30;1.10;;;22.10;61.00;;;;;;5054586;28;20443;-89
2023/12/12 05:39:57;;;;;;;2.27;1.70;;;22.10;61.00;;;;;;5054804;28;20488;-93
2023/12/12 05:42:25;;;;;;;1.47;1.13;;;22.10;61.00;;;;;;5054847;28;20430;-85
2023/12/12 05:44:52;;;;;;;1.60;1.20;;;22.10;61.00;;;;;;5054802;28;20445;-89
2023/12/12 05:47:19;;;;;;;1.80;1.27;;;22.10;60.90;;;;;;5054640;28;20572;-85
2023/12/12 05:49:47;;;;;;;1.33;1.20;;;22.10;60.90;;;;;;5054936;28;20439;-92
2023/12/12 05:52:15;;;;;;;1.60;0.97;;;22.10;60.90;;;;;;5054808;28;20524;-85
2023/12/12 05:54:42;;;;;;;1.30;1.10;;;22.10;60.90;;;;;;5054438;28;20438;-90
2023/12/12 05:57:09;;;;;;;2.03;1.33;;;22.10;60.80;;;;;;5054513;28;20469;-85
2023/12/12 05:59:36;;;;;;;1.23;1.10;;;22.20;60.90;;;;;;5054479;28;20524;-92
2023/12/12 06:02:03;;;;;;;3.57;1.10;;;22.20;61.00;;;;;;5054575;28;20522;-85
2023/12/12 06:04:30;;;;;;;1.70;1.10;;;22.20;61.20;;;;;;5054403;28;20433;-85
2023/12/12 06:06:58;;;;;;;1.30;1.00;;;22.20;61.30;;;;;;5054134;28;20480;-85
2023/12/12 06:09:25;;;;;;;1.30;1.20;;;22.20;61.40;;;;;;5054398;28;20433;-86
2023/12/12 06:11:52;;;;;;;2.67;1.10;;;22.20;61.40;;;;;;5054530;28;20796;-86
2023/12/12 06:14:19;;;;;;;1.50;1.30;;;22.20;60.40;;;;;;5054140;28;20457;-86
2023/12/12 06:16:46;;;;;;;2.17;1.30;;;22.20;61.00;;;;;;5054079;28;20436;-85
2023/12/12 06:19:13;;;;;;;1.50;1.10;;;22.20;61.00;;;;;;5053913;28;20556;-85
2023/12/12 06:21:39;;;;;;;3.17;1.03;;;22.30;61.50;;;;;;5054303;28;20445;-85
2023/12/12 06:24:08;;;;;;;3.67;1.60;;;22.30;61.50;;;;;;5054383;28;20440;-86
2023/12/12 06:26:37;;;;;;;2.77;1.30;;;22.30;61.80;;;;;;5053985;28;20756;-86
2023/12/12 06:29:07;;;;;;;3.57;1.40;;;22.30;62.50;;;;;;5053984;28;20805;-86
2023/12/12 06:31:34;;;;;;;1.40;1.00;;;22.30;61.60;;;;;;5054377;28;20870;-89
2023/12/12 06:34:00;;;;;;;2.13;1.00;;;22.30;61.50;;;;;;5053960;28;20441;-86
2023/12/12 06:36:27;;;;;;;1.70;1.20;;;22.30;62.40;;;;;;5053664;28;20987;-86
2023/12/12 06:38:54;;;;;;;2.50;1.50;;;22.30;61.70;;;;;;5053976;28;20528;-86
2023/12/12 06:41:22;;;;;;;1.80;1.20;;;22.30;61.70;;;;;;5053866;28;20440;-86
2023/12/12 06:43:49;;;;;;;1.40;1.10;;;22.30;61.90;;;;;;5053803;28;20524;-86
2023/12/12 06:46:18;;;;;;;5.53;1.40;;;22.30;61.90;;;;;;5053354;28;20790;-86
2023/12/12 06:48:45;;;;;;;1.53;1.27;;;22.20;62.10;;;;;;5053233;28;20494;-86
2023/12/12 06:51:12;;;;;;;1.83;1.07;;;22.20;61.90;;;;;;5052860;28;20437;-86
2023/12/12 06:53:39;;;;;;;2.73;1.07;;;22.20;62.00;;;;;;5053341;28;20928;-86
2023/12/12 06:56:06;;;;;;;2.40;1.10;;;22.20;62.10;;;;;;5053250;28;20440;-88
2023/12/12 06:58:35;;;;;;;5.37;1.40;;;22.20;62.10;;;;;;5053962;28;20438;-87
2023/12/12 07:01:01;;;;;;;2.20;1.33;;;22.30;62.20;;;;;;5053089;28;20465;-87
2023/12/12 07:03:28;;;;;;;2.70;1.40;;;22.30;62.10;;;;;;5053198;28;20540;-86
2023/12/12 07:05:56;;;;;;;5.23;1.30;;;22.30;62.20;;;;;;5053192;28;20441;-87
2023/12/12 07:08:22;;;;;;;1.47;1.03;;;22.40;62.30;;;;;;5053943;28;20638;-86
2023/12/12 07:10:49;;;;;;;5.60;1.27;;;22.30;62.00;;;;;;5053231;28;20469;-87
2023/12/12 07:13:16;;;;;;;1.20;0.83;;;22.30;62.20;;;;;;5054514;28;20528;-87
2023/12/12 07:15:44;;;;;;;2.17;1.20;;;22.30;62.10;;;;;;5062984;28;20442;-87
2023/12/12 07:18:12;;;;;;;2.20;1.30;;;22.30;61.90;;;;;;5060704;28;20568;-86
2023/12/12 07:20:39;;;;;;;2.03;1.13;;;22.30;62.10;;;;;;5053327;28;20443;-87
2023/12/12 07:23:07;;;;;;;4.63;1.50;;;22.30;62.10;;;;;;5053215;28;20442;-92
2023/12/12 07:25:34;;;;;;;5.53;1.70;;;22.30;61.90;;;;;;5053144;28;20533;-87
2023/12/12 07:28:02;;;;;;;2.43;1.50;;;22.40;61.70;;;;;;5053074;28;20485;-87
2023/12/12 07:30:28;;;;;;;2.57;1.30;;;22.30;61.70;;;;;;5061466;28;20464;-87
2023/12/12 07:32:57;;;;;;;2.17;1.27;;;22.30;61.40;;;;;;5072748;28;20449;-93
2023/12/12 07:35:25;;;;;;;2.10;1.30;;;22.30;61.80;;;;;;5073292;28;20440;-87
2023/12/12 07:37:51;;;;;;;2.80;1.20;;;22.30;61.90;;;;;;5072980;28;20447;-86
2023/12/12 07:40:18;;;;;;;4.53;1.27;;;22.30;61.90;;;;;;5072981;28;20539;-93
2023/12/12 07:42:45;;;;;;;4.03;1.37;;;22.30;61.80;;;;;;5074951;28;20551;-86
2023/12/12 07:45:12;;;;;;;4.63;2.00;;;22.30;61.70;;;;;;5068865;28;20483;-88
2023/12/12 07:47:39;;;;;;;2.87;1.20;;;22.40;61.10;;;;;;5072829;28;20523;-87
2023/12/12 07:50:09;;;;;;;1.70;1.27;;;22.40;61.80;;;;;;5072280;28;20932;-87
2023/12/12 07:52:35;;;;;;;2.00;1.37;;;22.40;63.10;;;;;;5072687;28;20802;-88
2023/12/12 07:55:02;;;;;;;2.83;1.60;;;22.30;61.80;;;;;;5072807;28;20450;-87
2023/12/12 07:57:29;;;;;;;2.80;1.37;;;22.30;61.80;;;;;;5072648;28;20931;-87
2023/12/12 07:59:56;;;;;;;3.30;1.67;;;22.30;61.70;;;;;;5072645;28;20451;-87
2023/12/12 08:02:23;;;;;;;2.03;1.30;;;22.40;61.70;;;;;;5075205;28;20440;-87
2023/12/12 08:04:49;;;;;;;2.33;1.57;;;22.30;61.60;;;;;;5076234;28;20451;-87
2023/12/12 08:07:18;;;;;;;5.10;1.50;;;22.30;61.60;;;;;;5076091;28;20582;-87
2023/12/12 08:09:44;;;;;;;2.10;1.33;;;22.30;61.70;;;;;;5076180;28;20480;-87
2023/12/12 08:12:11;;;;;;;2.00;1.27;;;22.30;61.70;;;;;;5076077;28;20535;-87
2023/12/12 08:14:38;;;;;;;1.67;1.47;;;22.30;61.70;;;;;;5076418;28;20448;-89
2023/12/12 08:17:05;;;;;;;3.10;1.37;;;22.30;62.30;;;;;;5076022;28;20527;-87
2023/12/12 08:19:32;;;;;;;2.63;1.47;;;22.30;61.70;;;;;;5075817;28;21070;-87
2023/12/12 08:21:58;;;;;;;1.70;1.20;;;22.30;61.70;;;;;;5076025;28;20444;-87
2023/12/12 08:24:27;;;;;;;1.50;1.20;;;22.30;61.60;;;;;;5076490;28;20543;-87
2023/12/12 08:26:54;;;;;;;1.80;1.40;;;22.30;61.70;;;;;;5069148;28;20487;-88
2023/12/12 08:29:21;;;;;;;7.10;1.23;;;22.30;61.50;;;;;;5072328;28;20467;-88
2023/12/12 08:31:48;;;;;;;1.87;1.37;;;22.30;61.20;;;;;;5075704;28;20996;-92
2023/12/12 08:34:15;;;;;;;1.70;1.03;;;22.30;61.40;;;;;;5075798;28;20523;-88
2023/12/12 08:36:42;;;;;;;2.57;1.50;;;22.30;61.40;;;;;;5075894;28;20519;-87
2023/12/12 08:39:08;;;;;;;3.90;1.43;;;22.30;61.40;;;;;;5075990;28;20440;-88
2023/12/12 08:41:38;;;;;;;1.50;1.20;;;22.30;61.50;;;;;;5075468;28;20440;-88
2023/12/12 08:44:05;;;;;;;1.70;1.10;;;22.30;61.40;;;;;;5075724;28;20436;-87
2023/12/12 08:46:32;;;;;;;3.07;1.77;;;22.30;61.30;;;;;;5075548;28;20561;-88
2023/12/12 08:48:59;;;;;;;2.10;0.90;;;22.40;61.50;;;;;;5075710;28;20502;-87
2023/12/12 08:51:27;;;;;;;1.87;1.60;;;22.30;61.20;;;;;;5075506;28;20451;-88
2023/12/12 08:53:54;;;;;;;2.77;1.50;;;22.30;61.20;;;;;;5075194;28;20436;-87
2023/12/12 08:56:21;;;;;;;2.13;1.20;;;22.40;61.40;;;;;;5075370;28;20448;-88
2023/12/12 08:58:51;;;;;;;1.73;1.50;;;22.40;61.30;;;;;;5075292;28;20535;-87
2023/12/12 09:01:18;;;;;;;3.30;1.53;;;22.30;61.10;;;;;;5074913;28;20460;-87
2023/12/12 09:03:44;;;;;;;2.90;1.33;;;22.40;61.30;;;;;;5075255;28;20908;-88
2023/12/12 09:06:11;;;;;;;2.00;1.20;;;22.40;61.30;;;;;;5075323;28;20602;-88
2023/12/12 09:08:41;;;;;;;1.90;1.20;;;22.50;61.40;;;;;;5075500;28;20490;-92
2023/12/12 09:11:09;;;;;;;1.47;1.23;;;22.40;61.10;;;;;;5075601;28;20815;-88
2023/12/12 09:13:36;;;;;;;3.20;1.37;;;22.40;61.20;;;;;;5074623;28;20441;-88
2023/12/12 09:16:05;;;;;;;1.77;1.30;;;22.40;61.20;;;;;;5075808;28;20476;-88
2023/12/12 09:18:31;;;;;;;2.70;1.27;;;22.40;61.20;;;;;;5075187;28;20504;-88
2023/12/12 09:20:58;;;;;;;1.47;1.10;;;22.50;61.20;;;;;;5075603;28;20444;-91
2023/12/12 09:23:27;;;;;;;3.57;1.30;;;22.40;61.10;;;;;;5087728;28;20417;-87
2023/12/12 09:25:54;;;;;;;1.60;1.10;;;22.40;61.10;;;;;;5080918;28;20429;-93
2023/12/12 09:28:21;;;;;;;3.07;1.30;;;22.40;61.10;;;;;;5075324;28;20998;-90
2023/12/12 09:30:48;;;;;;;3.00;1.20;;;22.40;61.10;;;;;;5075132;28;20459;-88
2023/12/12 09:33:16;;;;;;;2.13;1.20;;;22.40;61.00;;;;;;5074901;28;20927;-87
2023/12/12 09:35:43;;;;;;;2.10;1.20;;;22.50;61.10;;;;;;5074844;28;20436;-88
2023/12/12 09:38:10;;;;;;;1.57;1.00;;;22.40;61.00;;;;;;5075050;28;20478;-88
2023/12/12 09:40:37;;;;;;;1.97;1.20;;;22.40;60.90;;;;;;5074791;28;20578;-87
2023/12/12 09:43:04;;;;;;;1.77;1.17;;;22.50;61.10;;;;;;5075135;28;20510;-88
2023/12/12 09:45:32;;;;;;;2.03;1.20;;;22.50;61.00;;;;;;5074574;28;20432;-87
2023/12/12 09:47:59;;;;;;;2.10;1.20;;;22.50;60.90;;;;;;5074780;28;20554;-88
2023/12/12 09:50:28;;;;;;;2.20;1.03;;;22.50;61.00;;;;;;5074926;28;20451;-87
2023/12/12 09:52:55;;;;;;;1.30;1.10;;;22.50;60.90;;;;;;5074648;28;20506;-87
2023/12/12 09:55:23;;;;;;;2.20;1.13;;;22.50;61.00;;;;;;5074379;28;20447;-89
2023/12/12 09:57:50;;;;;;;2.07;1.20;;;22.50;60.90;;;;;;5074548;28;20444;-87
2023/12/12 10:00:21;;;;;;;1.77;1.33;;;22.50;60.90;;;;;;5074289;28;20464;-88
2023/12/12 10:02:50;;;;;;;1.50;1.23;;;22.50;61.00;;;;;;5074529;28;20490;-87
2023/12/12 10:05:17;;;;;;;2.17;1.23;;;22.50;61.10;;;;;;5073768;28;20444;-87
2023/12/12 10:07:47;;;;;;;1.83;1.20;;;22.50;61.10;;;;;;5074139;28;20488;-87
2023/12/12 10:10:14;;;;;;;2.07;1.30;;;22.50;61.00;;;;;;5074226;28;20938;-87
2023/12/12 10:12:42;;;;;;;2.10;1.50;;;22.40;61.00;;;;;;5074578;28;20445;-87
2023/12/12 10:15:23;;;;;;;3.00;1.20;;;22.50;61.00;;;;;;5074224;28;20820;-91
2023/12/12 10:17:54;;;;;;;1.97;1.50;;;22.50;60.90;;;;;;5074203;28;20429;-87
2023/12/12 10:20:26;;;;;;;1.77;1.50;;;22.50;60.90;;;;;;5073981;28;20883;-87
2023/12/12 10:22:57;;;;;;;1.60;1.20;;;22.50;61.00;;;;;;5074199;28;20919;-88
2023/12/12 10:25:24;;;;;;;1.50;1.00;;;22.50;61.00;;;;;;5073853;28;20425;-87
2023/12/12 10:27:53;;;;;;;1.40;1.10;;;22.50;60.90;;;;;;5073628;28;20465;-88
2023/12/12 10:30:21;;;;;;;1.20;1.00;;;22.50;60.80;;;;;;5073554;28;20464;-87
2023/12/12 10:32:51;;;;;;;1.20;1.00;;;22.50;60.90;;;;;;5073564;28;20440;-87
2023/12/12 10:35:17;;;;;;;1.90;1.27;;;22.50;60.80;;;;;;5073617;28;20471;-87
2023/12/12 10:37:44;;;;;;;1.43;1.10;;;22.50;60.60;;;;;;5073368;28;20511;-88
2023/12/12 10:40:17;;;;;;;1.60;1.40;;;22.60;60.70;;;;;;5073343;28;20432;-87
2023/12/12 10:42:44;;;;;;;2.30;1.37;;;22.60;60.80;;;;;;5074413;28;20439;-87
2023/12/12 10:45:13;;;;;;;1.40;1.10;;;22.60;60.60;;;;;;5073845;28;20429;-87
2023/12/12 10:47:45;;;;;;;4.90;1.20;;;22.60;60.50;;;;;;5073417;28;20993;-86
2023/12/12 10:50:14;;;;;;;1.20;1.03;;;22.60;60.40;;;;;;5073489;28;20536;-87
2023/12/12 10:52:43;;;;;;;2.53;1.33;;;22.60;60.50;;;;;;5074196;28;20437;-87
2023/12/12 10:55:11;;;;;;;1.30;1.10;;;22.60;60.50;;;;;;5073402;28;20444;-88
2023/12/12 10:57:42;;;;;;;1.63;0.90;;;22.70;60.40;;;;;;5070517;28;20545;-87
2023/12/12 11:00:14;;;;;;;1.70;1.23;;;22.70;60.40;;;;;;5073635;28;20471;-87
2023/12/12 11:02:42;;;;;;;1.47;0.90;;;22.70;60.40;;;;;;5073764;28;20475;-87
2023/12/12 11:05:11;;;;;;;1.87;1.17;;;22.70;60.20;;;;;;5073504;28;20438;-87
2023/12/12 11:07:38;;;;;;;1.60;1.23;;;22.70;60.20;;;;;;5073319;28;20938;-87
2023/12/12 11:10:08;;;;;;;1.30;1.00;;;22.70;60.20;;;;;;5073607;28;20486;-87
2023/12/12 11:12:37;;;;;;;1.70;1.43;;;22.70;60.20;;;;;;5073243;28;20436;-87
2023/12/12 11:15:07;;;;;;;1.30;1.10;;;22.70;60.20;;;;;;5073458;28;20437;-87
2023/12/12 11:17:34;;;;;;;1.30;0.90;;;22.80;60.20;;;;;;5073358;28;20443;-87
2023/12/12 11:20:12;;;;;;;2.50;1.57;;;22.70;60.20;;;;;;5073521;28;20440;-87
2023/12/12 11:22:39;;;;;;;1.73;1.07;;;22.80;60.20;;;;;;5072895;28;20802;-87
2023/12/12 11:25:08;;;;;;;1.33;0.83;;;22.80;60.20;;;;;;5072988;28;20437;-87
2023/12/12 11:27:37;;;;;;;2.33;1.70;;;22.80;60.20;;;;;;5073106;28;20438;-87
2023/12/12 11:30:06;;;;;;;1.37;1.27;;;22.80;60.40;;;;;;5072924;28;20503;-87
2023/12/12 11:32:34;;;;;;;1.30;1.10;;;22.80;60.20;;;;;;5073871;28;20535;-87
2023/12/12 11:35:04;;;;;;;2.43;1.00;;;22.80;60.20;;;;;;5084848;28;20500;-86
2023/12/12 11:37:40;;;;;;;1.33;1.10;;;22.80;61.10;;;;;;5083694;28;20482;-87
2023/12/12 11:40:09;;;;;;;1.87;1.10;;;22.90;60.30;;;;;;5077442;28;20446;-87
2023/12/12 11:42:36;;;;;;;1.47;1.23;;;22.80;60.10;;;;;;5077391;28;20950;-87
2023/12/12 11:45:03;;;;;;;2.03;1.17;;;22.80;60.00;;;;;;5077217;28;20446;-87
2023/12/12 11:47:32;;;;;;;1.30;1.10;;;22.80;60.20;;;;;;5076906;28;20935;-89
2023/12/12 11:50:31;;;;;;;1.47;1.13;;;22.80;60.20;;;;;;5083377;28;20460;-89
2023/12/12 11:52:58;;;;;;;1.50;1.20;;;22.80;60.20;;;;;;5080690;28;20493;-92
2023/12/12 11:55:29;;;;;;;1.40;1.10;;;22.80;60.10;;;;;;5074864;28;20872;-87
2023/12/12 11:58:00;;;;;;;1.47;1.00;;;22.80;60.00;;;;;;5069110;28;20927;-87
2023/12/12 12:00:32;;;;;;;2.67;1.10;;;22.80;60.40;;;;;;5076246;28;20955;-85
2023/12/12 12:03:00;;;;;;;1.20;1.00;;;22.80;60.20;;;;;;5076550;28;20440;-86
2023/12/12 12:05:27;;;;;;;3.40;1.10;;;22.80;60.30;;;;;;5076569;28;20447;-92
2023/12/12 12:07:55;;;;;;;1.87;1.03;;;22.80;60.50;;;;;;5070142;28;20981;-87
2023/12/12 12:10:22;;;;;;;1.70;0.83;;;22.70;60.00;;;;;;5068052;28;20966;-87
2023/12/12 12:12:57;;;;;;;1.77;1.17;;;22.80;60.30;;;;;;5071697;28;20434;-86
2023/12/12 12:15:24;;;;;;;3.23;1.00;;;22.80;60.50;;;;;;5056482;28;20437;-86
2023/12/12 12:17:51;;;;;;;1.73;1.10;;;22.80;60.60;;;;;;5056345;28;20477;-86
2023/12/12 12:20:19;;;;;;;1.57;1.40;;;22.80;60.50;;;;;;5056432;28;20437;-87
2023/12/12 12:22:46;;;;;;;1.60;1.30;;;22.80;60.40;;;;;;5056421;28;20441;-86
2023/12/12 12:25:13;;;;;;;1.70;1.03;;;22.80;60.50;;;;;;5056040;28;20539;-87
2023/12/12 12:27:52;;;;;;;4.27;1.20;;;22.70;60.40;;;;;;5056341;28;20488;-86
2023/12/12 12:30:19;;;;;;;2.17;1.10;;;22.80;60.50;;;;;;5055579;28;20469;-86
2023/12/12 12:33:03;;;;;;;2.83;1.13;;;22.70;60.40;;;;;;5055712;28;20495;-86
2023/12/12 12:35:32;;;;;;;1.40;1.00;;;22.70;60.50;;;;;;5055868;28;20456;-87
2023/12/12 12:37:59;;;;;;;1.17;1.00;;;22.70;60.40;;;;;;5055837;28;20445;-86
2023/12/12 12:40:34;;;;;;;2.10;1.40;;;22.70;60.50;;;;;;5055553;28;20445;-86
2023/12/12 12:43:04;;;;;;;2.83;1.07;;;22.70;60.50;;;;;;5055437;28;20436;-86
2023/12/12 12:45:31;;;;;;;2.13;1.53;;;22.70;60.50;;;;;;5055301;28;20441;-86
2023/12/12 12:47:58;;;;;;;2.63;1.13;;;22.70;60.60;;;;;;5054256;28;20441;-91
2023/12/12 12:50:25;;;;;;;1.60;0.90;;;22.70;60.50;;;;;;5055665;28;20794;-92